Lehmann Sound — V2EM3 — position and weather

sailwx.info

Track history (hours):
 
Tides and Currents Weather Stations Pressure Air Temp Water Temp Dewpoint Dewpoint Depression Visibility Wind Speed Wind Dir Waves Ship Positions

Lehmann Sound

Last reported at 2015-Jun-30 06:30 UTC. Time now 2015-Jun-30 08:21 UTC.
Position N 53°54' E 011°27'.

Length 90 m; draft 5.8 m.

Type: Cargo ship. MMSI: 305476000.

Date/timePositionNaut miles runAvg speedWind from/ knotsBaromVisibWave heightAir tempDewpointWater temp
2015-Jun-30 06:30N 53°54' E 011°27'9 6.8
2015-Jun-30 05:06N 54°04' E 011°27'5 9.6
2015-Jun-30 04:33N 54°09' E 011°25'1110.8
2015-Jun-30 03:33N 54°20' E 011°25'1110.7
2015-Jun-30 02:33N 54°30' E 011°23'1010.3
2015-Jun-30 01:33N 54°36' E 011°08'19 9.3
2015-Jun-29 23:33N 54°52' E 010°52'89 3.3
2015-Jun-28 20:13N 56°15' E 011°51'710.5
2015-Jun-28 19:34N 56°15' E 012°03'1010.4
2015-Jun-28 18:34N 56°12' E 012°21'1211.5
2015-Jun-28 17:33N 56°05' E 012°37'1111.1
2015-Jun-28 16:33N 55°54' E 012°44'1111.1
2015-Jun-28 15:33N 55°43' E 012°42'1211.6
2015-Jun-28 14:33N 55°32' E 012°43'1110.8
2015-Jun-28 13:34N 55°21' E 012°41'9 9.0
2015-Jun-28 12:32N 55°16' E 012°54'1010.4
2015-Jun-28 11:34N 55°15' E 013°12'1110.5
2015-Jun-28 10:33N 55°15' E 013°31'2110.4
2015-Jun-28 08:31N 55°14' E 014°08'9 9.4
2015-Jun-28 07:34N 55°18' E 014°22'1010.4
2015-Jun-28 06:34N 55°26' E 014°35'1110.8
2015-Jun-28 05:34N 55°31' E 014°51'1110.9
2015-Jun-28 04:33N 55°37' E 015°08'36010.2
2015-Jun-26 17:20N 59°38' E 023°28'1910.3
2015-Jun-26 15:28N 59°44' E 024°04'1010.2
2015-Jun-26 14:29N 59°47' E 024°23'6710.7
2015-Jun-26 08:14N 60°01' E 026°34'710.4
2015-Jun-26 07:34N 60°01' E 026°48'1010.1
2015-Jun-26 06:34N 60°01' E 027°08'68 9.7
2015-Jun-25 23:33N 60°02' E 029°24'10 9.7
2015-Jun-25 22:32N 59°59' E 029°43'1010.0
2015-Jun-25 21:33N 59°55' E 030°01'6 5.8
2015-Jun-25 20:31N 59°53' E 030°12'0 0.0
2015-Jun-25 19:31N 59°53' E 030°12'0 0.0
2015-Jun-25 18:31N 59°53' E 030°12'0 0.0
2015-Jun-25 17:31N 59°53' E 030°12'0 0.0
2015-Jun-25 16:31N 59°53' E 030°12'0 0.0
2015-Jun-25 15:31N 59°53' E 030°12'0 0.0
2015-Jun-25 14:31N 59°53' E 030°12'0 0.0
2015-Jun-25 13:31N 59°53' E 030°12'0 0.0
2015-Jun-25 12:31N 59°53' E 030°12'0 0.0
2015-Jun-25 11:31N 59°53' E 030°12'0 0.0
2015-Jun-25 10:31N 59°53' E 030°12'0 0.0
2015-Jun-25 09:28N 59°53' E 030°12'0 0.0
2015-Jun-25 08:31N 59°53' E 030°12'0 0.0
2015-Jun-25 07:31N 59°53' E 030°12'0 0.0
2015-Jun-25 06:31N 59°53' E 030°12'0 0.0
2015-Jun-25 05:31N 59°53' E 030°12'0 0.0
2015-Jun-25 04:31N 59°53' E 030°12'0 0.0
2015-Jun-25 03:31N 59°53' E 030°12'0 0.0
2015-Jun-25 02:31N 59°53' E 030°12'0 0.0
2015-Jun-25 01:27N 59°53' E 030°12'0 0.0
2015-Jun-25 00:30N 59°53' E 030°12'0 0.0
2015-Jun-24 23:33N 59°53' E 030°12'0 0.0
2015-Jun-24 22:33N 59°53' E 030°12'0 0.0
2015-Jun-24 21:33N 59°53' E 030°12'0 0.0
2015-Jun-24 20:33N 59°53' E 030°12'0 0.0
2015-Jun-24 19:33N 59°53' E 030°12'0 0.0
2015-Jun-24 18:33N 59°53' E 030°12'0 0.0
2015-Jun-24 17:33N 59°53' E 030°12'0 0.0
2015-Jun-24 16:33N 59°53' E 030°12'0 0.0
2015-Jun-24 15:33N 59°53' E 030°12'0 0.0
2015-Jun-24 14:33N 59°53' E 030°12'0 0.0
2015-Jun-24 13:33N 59°53' E 030°12'0 0.0
2015-Jun-24 12:24N 59°53' E 030°12'0 0.0
2015-Jun-24 11:33N 59°53' E 030°12'0 0.0
2015-Jun-24 10:33N 59°53' E 030°12'0 0.0
2015-Jun-24 09:30N 59°53' E 030°12'0 0.0
2015-Jun-24 08:33N 59°53' E 030°12'0 0.0
2015-Jun-24 07:33N 59°53' E 030°12'0 0.0
2015-Jun-24 06:33N 59°53' E 030°12'0 0.0
2015-Jun-24 05:27N 59°53' E 030°12'0 0.1
2015-Jun-24 04:33N 59°53' E 030°13'7 6.8
2015-Jun-24 03:33N 59°55' E 029°60'10 9.8
2015-Jun-24 02:33N 59°59' E 029°42'9 8.6
2015-Jun-24 01:33N 60°01' E 029°25'99 3.3
2015-Jun-22 19:33N 59°55' E 026°08'1110.9
2015-Jun-22 18:33N 59°52' E 025°47'4711.0
2015-Jun-22 14:18N 59°41' E 024°16'1110.9
2015-Jun-22 13:19N 59°38' E 023°56'810.9
2015-Jun-22 12:33N 59°34' E 023°41'  
Track history (hours):
 
Tides and Currents Weather Stations Pressure Air Temp Water Temp Dewpoint Dewpoint Depression Visibility Wind Speed Wind Dir Waves Ship Positions

Lehmann Sound

Last reported at 2015-Jun-30 06:30 UTC. Time now 2015-Jun-30 08:21 UTC.
Position N 53°54' E 011°27'.

Length 90 m; draft 5.8 m.

Type: Cargo ship. MMSI: 305476000.

Date/timePositionNaut miles runAvg speedWind from/ knotsBaromVisibWave heightAir tempDewpointWater temp
2015-Jun-30 06:30N 53°54' E 011°27'9 6.8
2015-Jun-30 05:06N 54°04' E 011°27'5 9.6
2015-Jun-30 04:33N 54°09' E 011°25'1110.8
2015-Jun-30 03:33N 54°20' E 011°25'1110.7
2015-Jun-30 02:33N 54°30' E 011°23'1010.3
2015-Jun-30 01:33N 54°36' E 011°08'19 9.3
2015-Jun-29 23:33N 54°52' E 010°52'89 3.3
2015-Jun-28 20:13N 56°15' E 011°51'710.5
2015-Jun-28 19:34N 56°15' E 012°03'1010.4
2015-Jun-28 18:34N 56°12' E 012°21'1211.5
2015-Jun-28 17:33N 56°05' E 012°37'1111.1
2015-Jun-28 16:33N 55°54' E 012°44'1111.1
2015-Jun-28 15:33N 55°43' E 012°42'1211.6
2015-Jun-28 14:33N 55°32' E 012°43'1110.8
2015-Jun-28 13:34N 55°21' E 012°41'9 9.0
2015-Jun-28 12:32N 55°16' E 012°54'1010.4
2015-Jun-28 11:34N 55°15' E 013°12'1110.5
2015-Jun-28 10:33N 55°15' E 013°31'2110.4
2015-Jun-28 08:31N 55°14' E 014°08'9 9.4
2015-Jun-28 07:34N 55°18' E 014°22'1010.4
2015-Jun-28 06:34N 55°26' E 014°35'1110.8
2015-Jun-28 05:34N 55°31' E 014°51'1110.9
2015-Jun-28 04:33N 55°37' E 015°08'36010.2
2015-Jun-26 17:20N 59°38' E 023°28'1910.3
2015-Jun-26 15:28N 59°44' E 024°04'1010.2
2015-Jun-26 14:29N 59°47' E 024°23'6710.7
2015-Jun-26 08:14N 60°01' E 026°34'710.4
2015-Jun-26 07:34N 60°01' E 026°48'1010.1
2015-Jun-26 06:34N 60°01' E 027°08'68 9.7
2015-Jun-25 23:33N 60°02' E 029°24'10 9.7
2015-Jun-25 22:32N 59°59' E 029°43'1010.0
2015-Jun-25 21:33N 59°55' E 030°01'6 5.8
2015-Jun-25 20:31N 59°53' E 030°12'0 0.0
2015-Jun-25 19:31N 59°53' E 030°12'0 0.0
2015-Jun-25 18:31N 59°53' E 030°12'0 0.0
2015-Jun-25 17:31N 59°53' E 030°12'0 0.0
2015-Jun-25 16:31N 59°53' E 030°12'0 0.0
2015-Jun-25 15:31N 59°53' E 030°12'0 0.0
2015-Jun-25 14:31N 59°53' E 030°12'0 0.0
2015-Jun-25 13:31N 59°53' E 030°12'0 0.0
2015-Jun-25 12:31N 59°53' E 030°12'0 0.0
2015-Jun-25 11:31N 59°53' E 030°12'0 0.0
2015-Jun-25 10:31N 59°53' E 030°12'0 0.0
2015-Jun-25 09:28N 59°53' E 030°12'0 0.0
2015-Jun-25 08:31N 59°53' E 030°12'0 0.0
2015-Jun-25 07:31N 59°53' E 030°12'0 0.0
2015-Jun-25 06:31N 59°53' E 030°12'0 0.0
2015-Jun-25 05:31N 59°53' E 030°12'0 0.0
2015-Jun-25 04:31N 59°53' E 030°12'0 0.0
2015-Jun-25 03:31N 59°53' E 030°12'0 0.0
2015-Jun-25 02:31N 59°53' E 030°12'0 0.0
2015-Jun-25 01:27N 59°53' E 030°12'0 0.0
2015-Jun-25 00:30N 59°53' E 030°12'0 0.0
2015-Jun-24 23:33N 59°53' E 030°12'0 0.0
2015-Jun-24 22:33N 59°53' E 030°12'0 0.0
2015-Jun-24 21:33N 59°53' E 030°12'0 0.0
2015-Jun-24 20:33N 59°53' E 030°12'0 0.0
2015-Jun-24 19:33N 59°53' E 030°12'0 0.0
2015-Jun-24 18:33N 59°53' E 030°12'0 0.0
2015-Jun-24 17:33N 59°53' E 030°12'0 0.0
2015-Jun-24 16:33N 59°53' E 030°12'0 0.0
2015-Jun-24 15:33N 59°53' E 030°12'0 0.0
2015-Jun-24 14:33N 59°53' E 030°12'0 0.0
2015-Jun-24 13:33N 59°53' E 030°12'0 0.0
2015-Jun-24 12:24N 59°53' E 030°12'0 0.0
2015-Jun-24 11:33N 59°53' E 030°12'0 0.0
2015-Jun-24 10:33N 59°53' E 030°12'0 0.0
2015-Jun-24 09:30N 59°53' E 030°12'0 0.0
2015-Jun-24 08:33N 59°53' E 030°12'0 0.0
2015-Jun-24 07:33N 59°53' E 030°12'0 0.0
2015-Jun-24 06:33N 59°53' E 030°12'0 0.0
2015-Jun-24 05:27N 59°53' E 030°12'0 0.1
2015-Jun-24 04:33N 59°53' E 030°13'7 6.8
2015-Jun-24 03:33N 59°55' E 029°60'10 9.8
2015-Jun-24 02:33N 59°59' E 029°42'9 8.6
2015-Jun-24 01:33N 60°01' E 029°25'99 3.3
2015-Jun-22 19:33N 59°55' E 026°08'1110.9
2015-Jun-22 18:33N 59°52' E 025°47'4711.0
2015-Jun-22 14:18N 59°41' E 024°16'1110.9
2015-Jun-22 13:19N 59°38' E 023°56'810.9
2015-Jun-22 12:33N 59°34' E 023°41'  

Dump ship's entire track history